Terminal Aerodrome Forecast
Issued by NWS Buffalo, NY

Home | Current Version | Previous Version | Text Only | Print | Product List | Glossary On
Versions: 1 2 3 4 5 6 7 8 9 10 11 12 13 14 15 16 17 18 19 20 21 22 23
979
FTUS41 KBUF 230806 AAA
TAFBUF
TAF AMD
KBUF 230806Z 2308/2406 VRB05KT 6SM BR SKC
     FM231100 27005KT P6SM SKC
     FM231500 25010KT P6SM FEW070
     FM231700 25014G22KT P6SM SCT070
     FM232200 31008KT P6SM FEW070
     FM240100 VRB03KT P6SM SKC=

USA.gov is the U.S. government's official web portal to all federal, state and local government web resources and services.